Terminal Aerodrome Forecast
Issued by NWS Riverton, WY

Home | Current Version | Previous Version | Text Only | Print | Product List | Glossary On
Versions: 1 2 3 4 5 6 7 8 9 10 11 12 13 14 15 16 17 18
000
FTUS45 KRIW 191120
TAFRIW
TAF
KRIW 191120Z 1912/2012 08007KT P6SM SCT120 BKN200
     FM192200 03009KT P6SM SCT120 BKN200
     FM200300 02014KT P6SM BKN100
     FM201000 01015KT P6SM OVC080=

USA.gov is the U.S. government's official web portal to all federal, state and local government web resources and services.